Time;durP1;ratioP1;P1;durP2;ratioP2;P2;SDS_P1;SDS_P2;PMS_P1;PMS_P2;Temp;Humidity;BMP_temperature;BMP_pressure;BME280_temperature;BME280_humidity;BME280_pressure;Samples;Min_cycle;Max_cycle;Signal;HPM_P1;HPM_P2
2021/10/11 00:02:11;;;;;;;269.77;254.43;;;;;;;;;;5011911;28;20508;-64
2021/10/11 00:04:39;;;;;;;271.17;255.47;;;;;;;;;;5010893;28;20488;-63
2021/10/11 00:07:08;;;;;;;275.17;259.33;;;;;;;;;;5010565;28;20445;-64
2021/10/11 00:09:35;;;;;;;285.13;268.93;;;;;;;;;;5011238;28;20460;-64
2021/10/11 00:12:02;;;;;;;291.73;275.33;;;;;;;;;;5010637;28;20828;-63
2021/10/11 00:14:31;;;;;;;299.57;282.40;;;;;;;;;;5011581;28;20470;-64
2021/10/11 00:16:58;;;;;;;296.23;279.00;;;;;;;;;;5012335;28;20853;-62
2021/10/11 00:19:25;;;;;;;302.87;286.03;;;;;;;;;;5014988;28;20446;-64
2021/10/11 00:21:52;;;;;;;305.53;288.17;;;;;;;;;;5016063;28;20536;-62
2021/10/11 00:24:19;;;;;;;306.67;289.73;;;;;;;;;;5015208;28;20473;-63
2021/10/11 00:26:46;;;;;;;305.43;288.00;;;;;;;;;;5013679;28;20970;-64
2021/10/11 00:29:14;;;;;;;317.00;298.93;;;;;;;;;;5014770;28;20453;-64
2021/10/11 00:31:42;;;;;;;311.83;294.23;;;;;;;;;;5014214;28;20450;-64
2021/10/11 00:34:09;;;;;;;304.37;287.30;;;;;;;;;;5015665;28;20476;-64
2021/10/11 00:36:36;;;;;;;305.63;288.30;;;;;;;;;;5014238;28;20500;-64
2021/10/11 00:39:03;;;;;;;304.50;287.60;;;;;;;;;;5014280;28;20460;-64
2021/10/11 00:41:32;;;;;;;313.70;296.13;;;;;;;;;;5014628;28;20453;-65
2021/10/11 00:43:59;;;;;;;304.27;286.87;;;;;;;;;;5014822;28;20466;-63
2021/10/11 00:46:26;;;;;;;304.83;287.33;;;;;;;;;;5013432;28;20453;-60
2021/10/11 00:48:55;;;;;;;309.07;291.67;;;;;;;;;;5014803;28;20453;-61
2021/10/11 00:51:22;;;;;;;311.07;293.37;;;;;;;;;;5014257;28;20462;-61
2021/10/11 00:53:49;;;;;;;294.67;277.07;;;;;;;;;;5014432;28;20836;-61
2021/10/11 00:56:16;;;;;;;298.80;281.60;;;;;;;;;;5013312;28;20536;-60
2021/10/11 00:58:44;;;;;;;299.03;281.13;;;;;;;;;;5014361;28;20464;-61
2021/10/11 01:01:11;;;;;;;289.20;272.10;;;;;;;;;;5013611;28;20453;-60
2021/10/11 01:03:38;;;;;;;278.77;261.80;;;;;;;;;;5013986;28;20844;-61
2021/10/11 01:06:07;;;;;;;274.83;257.53;;;;;;;;;;5012982;28;20968;-63
2021/10/11 01:08:34;;;;;;;263.20;246.57;;;;;;;;;;5013525;28;20946;-61
2021/10/11 01:11:01;;;;;;;257.33;241.20;;;;;;;;;;5015006;28;20450;-61
2021/10/11 01:13:28;;;;;;;257.83;241.63;;;;;;;;;;5013856;28;20569;-61
2021/10/11 01:15:56;;;;;;;237.67;222.13;;;;;;;;;;5017618;28;21028;-62
2021/10/11 01:18:23;;;;;;;233.50;218.10;;;;;;;;;;5013730;28;20483;-61
2021/10/11 01:20:51;;;;;;;229.00;213.40;;;;;;;;;;5013323;28;20820;-61
2021/10/11 01:23:19;;;;;;;220.07;204.87;;;;;;;;;;5013656;28;20488;-61
2021/10/11 01:25:46;;;;;;;225.80;210.30;;;;;;;;;;5012228;28;20957;-63
2021/10/11 01:28:13;;;;;;;214.97;199.27;;;;;;;;;;5012820;28;20445;-61
2021/10/11 01:30:40;;;;;;;205.63;190.93;;;;;;;;;;5024969;28;20453;-63
2021/10/11 01:33:09;;;;;;;198.70;183.03;;;;;;;;;;5029319;28;20837;-61
2021/10/11 01:35:36;;;;;;;205.80;190.53;;;;;;;;;;5012506;28;20461;-65
2021/10/11 01:38:05;;;;;;;198.40;183.50;;;;;;;;;;5008780;28;20484;-61
2021/10/11 01:40:32;;;;;;;200.67;185.77;;;;;;;;;;5012888;28;20817;-63
2021/10/11 01:42:59;;;;;;;190.50;175.20;;;;;;;;;;5013156;28;20473;-61
2021/10/11 01:45:27;;;;;;;175.13;161.03;;;;;;;;;;5013149;28;20446;-61
2021/10/11 01:47:54;;;;;;;183.43;169.07;;;;;;;;;;5013533;28;20445;-61
2021/10/11 01:50:21;;;;;;;184.47;170.23;;;;;;;;;;5019619;28;20452;-62
2021/10/11 01:52:48;;;;;;;186.07;171.57;;;;;;;;;;5013943;28;20453;-62
2021/10/11 01:55:16;;;;;;;180.83;166.50;;;;;;;;;;5012713;28;21247;-62
2021/10/11 01:57:43;;;;;;;187.10;172.87;;;;;;;;;;5013021;28;20488;-61
2021/10/11 02:00:11;;;;;;;179.60;165.50;;;;;;;;;;5012765;28;20965;-64
2021/10/11 02:02:38;;;;;;;177.27;162.87;;;;;;;;;;5013009;28;20457;-61
2021/10/11 02:05:06;;;;;;;178.77;164.33;;;;;;;;;;5011750;28;20469;-61
2021/10/11 02:07:34;;;;;;;176.67;162.57;;;;;;;;;;5012500;28;20441;-62
2021/10/11 02:10:01;;;;;;;175.03;161.27;;;;;;;;;;5013247;28;20456;-63
2021/10/11 02:12:29;;;;;;;177.03;162.57;;;;;;;;;;5019430;28;20967;-61
2021/10/11 02:14:57;;;;;;;177.87;163.37;;;;;;;;;;5012604;28;20454;-61
2021/10/11 02:17:24;;;;;;;186.40;171.77;;;;;;;;;;5012489;28;20481;-61
2021/10/11 02:19:52;;;;;;;178.37;163.93;;;;;;;;;;5012821;28;20477;-62
2021/10/11 02:22:19;;;;;;;175.23;161.53;;;;;;;;;;5012362;28;20465;-61
2021/10/11 02:24:46;;;;;;;178.37;163.80;;;;;;;;;;5012333;28;20473;-61
2021/10/11 02:27:13;;;;;;;176.03;161.80;;;;;;;;;;5010511;28;20732;-61
2021/10/11 02:29:41;;;;;;;174.30;159.90;;;;;;;;;;5018891;28;20449;-61
2021/10/11 02:32:08;;;;;;;173.03;159.13;;;;;;;;;;5026759;28;20450;-61
2021/10/11 02:34:36;;;;;;;169.70;156.30;;;;;;;;;;5009845;28;20492;-63
2021/10/11 02:37:03;;;;;;;171.67;157.67;;;;;;;;;;4995205;28;20482;-61
2021/10/11 02:39:30;;;;;;;169.73;156.27;;;;;;;;;;5011374;28;20459;-62
2021/10/11 02:41:57;;;;;;;173.50;159.17;;;;;;;;;;5012427;28;20976;-60
2021/10/11 02:44:24;;;;;;;171.83;158.53;;;;;;;;;;5012575;28;20484;-62
2021/10/11 02:46:52;;;;;;;179.20;164.53;;;;;;;;;;4992617;28;20453;-61
2021/10/11 02:49:20;;;;;;;170.70;156.90;;;;;;;;;;4992813;28;20453;-61
2021/10/11 02:51:47;;;;;;;169.73;156.07;;;;;;;;;;5011469;28;20461;-61
2021/10/11 02:54:17;;;;;;;164.83;151.60;;;;;;;;;;4998029;28;20470;-61
2021/10/11 02:56:44;;;;;;;169.00;154.33;;;;;;;;;;5011705;28;20761;-61
2021/10/11 02:59:11;;;;;;;171.70;157.17;;;;;;;;;;5012262;28;20520;-61
2021/10/11 03:01:38;;;;;;;170.50;156.17;;;;;;;;;;5011686;28;20493;-64
2021/10/11 03:04:07;;;;;;;169.40;155.20;;;;;;;;;;5011951;28;20485;-61
2021/10/11 03:06:34;;;;;;;173.17;158.60;;;;;;;;;;5011334;28;20953;-61
2021/10/11 03:09:01;;;;;;;170.50;156.40;;;;;;;;;;5053733;22;20488;-69
2021/10/11 03:11:28;;;;;;;172.07;157.10;;;;;;;;;;5036903;28;20448;-69
2021/10/11 03:13:55;;;;;;;170.67;156.00;;;;;;;;;;5031236;28;20459;-68
2021/10/11 03:16:22;;;;;;;169.53;154.93;;;;;;;;;;5031339;28;20448;-68
2021/10/11 03:18:49;;;;;;;174.90;159.80;;;;;;;;;;5031174;28;20488;-67
2021/10/11 03:21:21;;;;;;;168.87;154.37;;;;;;;;;;5032252;28;20445;-66
2021/10/11 03:23:48;;;;;;;174.10;160.00;;;;;;;;;;5031317;28;20451;-68
2021/10/11 03:26:15;;;;;;;177.60;161.60;;;;;;;;;;5030926;28;20453;-68
2021/10/11 03:28:42;;;;;;;170.53;155.87;;;;;;;;;;5031014;28;20987;-68
2021/10/11 03:31:09;;;;;;;165.60;151.30;;;;;;;;;;5031113;28;20457;-67
2021/10/11 03:33:36;;;;;;;181.43;166.93;;;;;;;;;;5031538;28;20448;-68
2021/10/11 03:36:03;;;;;;;166.40;151.20;;;;;;;;;;5030830;28;20460;-67
2021/10/11 03:38:32;;;;;;;165.63;150.77;;;;;;;;;;5039644;28;21012;-67
2021/10/11 03:40:59;;;;;;;166.07;151.37;;;;;;;;;;5031394;28;20456;-66
2021/10/11 03:43:26;;;;;;;175.73;160.20;;;;;;;;;;5031191;28;20453;-67
2021/10/11 03:45:55;;;;;;;159.63;145.93;;;;;;;;;;5030820;28;20466;-67
2021/10/11 03:48:22;;;;;;;165.97;150.23;;;;;;;;;;5030792;28;21059;-67
2021/10/11 03:50:49;;;;;;;162.93;148.30;;;;;;;;;;5032673;28;20727;-68
2021/10/11 03:53:17;;;;;;;166.07;150.83;;;;;;;;;;5035375;28;20448;-68
2021/10/11 03:55:46;;;;;;;170.67;155.00;;;;;;;;;;5034677;28;20452;-68
2021/10/11 03:58:13;;;;;;;172.80;156.30;;;;;;;;;;5035966;28;20491;-68
2021/10/11 04:00:40;;;;;;;175.87;160.67;;;;;;;;;;5036964;28;20458;-68
2021/10/11 04:03:09;;;;;;;172.40;156.90;;;;;;;;;;5043814;28;20453;-66
2021/10/11 04:05:36;;;;;;;168.07;152.03;;;;;;;;;;5038427;28;20455;-67
2021/10/11 04:08:08;;;;;;;170.60;155.33;;;;;;;;;;5046116;28;20472;-68
2021/10/11 04:10:40;;;;;;;173.20;157.10;;;;;;;;;;5036351;28;20452;-68
2021/10/11 04:13:08;;;;;;;165.30;150.30;;;;;;;;;;5034850;28;20931;-68
2021/10/11 04:15:35;;;;;;;173.00;157.40;;;;;;;;;;5034427;28;20455;-68
2021/10/11 04:18:02;;;;;;;169.67;154.53;;;;;;;;;;5034379;28;20484;-68
2021/10/11 04:20:29;;;;;;;173.90;158.53;;;;;;;;;;5035026;28;20448;-68
2021/10/11 04:22:56;;;;;;;167.40;152.03;;;;;;;;;;5034541;28;20457;-67
2021/10/11 04:25:24;;;;;;;173.37;158.20;;;;;;;;;;5035473;28;20530;-68
2021/10/11 04:27:51;;;;;;;162.57;147.83;;;;;;;;;;5034217;28;20465;-68
2021/10/11 04:30:19;;;;;;;164.20;149.20;;;;;;;;;;5034917;28;20451;-68
2021/10/11 04:32:46;;;;;;;159.03;144.73;;;;;;;;;;5034284;28;20545;-68
2021/10/11 04:35:13;;;;;;;162.80;148.27;;;;;;;;;;5034901;28;20449;-68
2021/10/11 04:37:42;;;;;;;163.47;148.67;;;;;;;;;;5034912;28;20480;-67
2021/10/11 04:40:10;;;;;;;159.27;145.47;;;;;;;;;;5029466;28;20463;-68
2021/10/11 04:42:37;;;;;;;166.13;151.57;;;;;;;;;;5053896;28;20447;-68
2021/10/11 04:45:04;;;;;;;158.40;144.57;;;;;;;;;;5034278;28;20459;-68
2021/10/11 04:47:33;;;;;;;165.10;150.97;;;;;;;;;;5034303;28;20483;-68
2021/10/11 04:50:00;;;;;;;158.13;144.07;;;;;;;;;;5034384;28;20457;-68
2021/10/11 04:52:27;;;;;;;159.23;145.03;;;;;;;;;;5034504;28;20491;-68
2021/10/11 04:54:54;;;;;;;159.10;144.80;;;;;;;;;;5027855;28;20460;-69
2021/10/11 04:57:21;;;;;;;162.50;148.13;;;;;;;;;;5046851;28;20478;-68
2021/10/11 04:59:48;;;;;;;158.97;145.60;;;;;;;;;;5033534;28;21017;-68
2021/10/11 05:02:15;;;;;;;163.83;148.60;;;;;;;;;;5038452;28;20455;-68
2021/10/11 05:04:44;;;;;;;154.73;140.73;;;;;;;;;;5039276;28;20457;-68
2021/10/11 05:07:11;;;;;;;158.77;144.07;;;;;;;;;;5033612;28;20460;-66
2021/10/11 05:09:38;;;;;;;152.37;138.47;;;;;;;;;;5033258;28;20440;-68
2021/10/11 05:12:06;;;;;;;104.97;96.40;;;;;;;;;;5050933;28;20444;-65
2021/10/11 05:14:33;;;;;;;84.87;78.37;;;;;;;;;;5045110;28;20451;-69
2021/10/11 05:17:00;;;;;;;148.47;138.37;;;;;;;;;;5053759;28;20455;-67
2021/10/11 05:19:28;;;;;;;161.13;149.67;;;;;;;;;;5023835;28;20481;-69
2021/10/11 05:21:56;;;;;;;87.10;80.10;;;;;;;;;;5033972;28;20452;-69
2021/10/11 05:24:24;;;;;;;102.40;94.07;;;;;;;;;;5036889;28;20464;-66
2021/10/11 05:26:52;;;;;;;102.47;93.97;;;;;;;;;;5039551;28;20664;-67
2021/10/11 05:29:19;;;;;;;116.30;106.80;;;;;;;;;;5027532;28;20562;-67
2021/10/11 05:31:46;;;;;;;137.10;126.20;;;;;;;;;;5033879;28;20460;-66
2021/10/11 05:34:13;;;;;;;158.43;146.33;;;;;;;;;;5032852;28;20471;-69
2021/10/11 05:36:40;;;;;;;183.17;168.07;;;;;;;;;;5031498;28;20861;-69
2021/10/11 05:39:09;;;;;;;235.40;217.37;;;;;;;;;;5052562;28;20848;-69
2021/10/11 05:41:36;;;;;;;293.93;271.33;;;;;;;;;;5032610;28;20464;-67
2021/10/11 05:44:03;;;;;;;390.23;362.73;;;;;;;;;;5031017;28;20473;-65
2021/10/11 05:46:30;;;;;;;504.83;470.27;;;;;;;;;;5030228;28;20473;-66
2021/10/11 05:48:57;;;;;;;610.87;569.17;;;;;;;;;;5031603;28;20464;-65
2021/10/11 05:51:25;;;;;;;667.90;619.47;;;;;;;;;;5030076;28;20464;-65
2021/10/11 05:53:52;;;;;;;711.40;662.23;;;;;;;;;;5031711;28;20478;-65
2021/10/11 05:56:20;;;;;;;722.87;672.13;;;;;;;;;;5037470;28;20459;-66
2021/10/11 05:58:47;;;;;;;677.43;627.73;;;;;;;;;;5033107;28;20485;-67
2021/10/11 06:01:14;;;;;;;659.93;614.10;;;;;;;;;;5028584;28;20467;-67
2021/10/11 06:03:41;;;;;;;593.57;550.83;;;;;;;;;;5041369;28;20455;-66
2021/10/11 06:06:09;;;;;;;529.20;489.07;;;;;;;;;;5039381;28;20844;-66
2021/10/11 06:08:36;;;;;;;516.80;476.47;;;;;;;;;;5028940;28;20492;-64
2021/10/11 06:11:03;;;;;;;530.43;492.33;;;;;;;;;;5033588;28;20471;-64
2021/10/11 06:13:31;;;;;;;547.57;514.67;;;;;;;;;;5032341;28;20461;-66
2021/10/11 06:15:58;;;;;;;350.20;326.30;;;;;;;;;;5030642;28;20951;-66
2021/10/11 06:18:25;;;;;;;238.00;219.67;;;;;;;;;;5031793;28;20511;-66
2021/10/11 06:20:52;;;;;;;222.67;205.63;;;;;;;;;;5032122;28;20465;-66
2021/10/11 06:23:19;;;;;;;204.70;188.63;;;;;;;;;;5030169;28;20473;-66
2021/10/11 06:25:46;;;;;;;197.50;182.30;;;;;;;;;;5032244;28;20894;-66
2021/10/11 06:28:15;;;;;;;186.70;171.90;;;;;;;;;;5027462;28;20534;-66
2021/10/11 06:30:45;;;;;;;197.37;182.77;;;;;;;;;;5029964;28;20841;-66
2021/10/11 06:33:13;;;;;;;191.50;176.40;;;;;;;;;;5032220;28;20461;-66
2021/10/11 06:35:40;;;;;;;185.57;170.37;;;;;;;;;;5031537;28;20463;-66
2021/10/11 06:38:07;;;;;;;181.27;165.73;;;;;;;;;;5029941;28;20477;-66
2021/10/11 06:40:34;;;;;;;179.63;165.03;;;;;;;;;;5031421;28;20843;-66
2021/10/11 06:43:01;;;;;;;179.50;165.10;;;;;;;;;;5032648;28;20453;-66
2021/10/11 06:45:28;;;;;;;189.20;175.47;;;;;;;;;;5030969;28;20469;-66
2021/10/11 06:47:57;;;;;;;169.90;155.30;;;;;;;;;;5032219;28;21012;-66
2021/10/11 06:50:24;;;;;;;172.27;158.43;;;;;;;;;;5030547;28;20460;-66
2021/10/11 06:52:51;;;;;;;174.43;160.67;;;;;;;;;;5031291;28;20469;-66
2021/10/11 06:55:18;;;;;;;179.13;165.40;;;;;;;;;;5032000;28;20508;-67
2021/10/11 06:57:45;;;;;;;176.70;164.00;;;;;;;;;;5031689;28;20484;-68
2021/10/11 07:00:13;;;;;;;168.70;155.70;;;;;;;;;;5031854;28;20487;-68
2021/10/11 07:02:40;;;;;;;169.20;156.27;;;;;;;;;;5030680;28;20475;-68
2021/10/11 07:05:10;;;;;;;192.80;179.37;;;;;;;;;;5031466;28;20473;-68
2021/10/11 07:07:38;;;;;;;216.53;201.17;;;;;;;;;;5028384;28;20555;-67
2021/10/11 07:10:05;;;;;;;235.93;219.83;;;;;;;;;;5030395;28;20468;-68
2021/10/11 07:12:33;;;;;;;322.07;301.00;;;;;;;;;;5030759;28;20487;-67
2021/10/11 07:15:00;;;;;;;406.17;379.00;;;;;;;;;;5031794;28;20456;-67
2021/10/11 07:17:27;;;;;;;586.13;538.73;;;;;;;;;;5030946;28;20495;-67
2021/10/11 07:19:54;;;;;;;633.37;593.77;;;;;;;;;;5030721;28;20995;-67
2021/10/11 07:22:23;;;;;;;617.57;579.77;;;;;;;;;;5030217;28;20469;-67
2021/10/11 07:24:51;;;;;;;567.53;532.90;;;;;;;;;;5030839;28;20503;-67
2021/10/11 07:27:18;;;;;;;435.57;404.50;;;;;;;;;;5030567;28;20467;-67
2021/10/11 07:29:45;;;;;;;469.03;439.87;;;;;;;;;;5030951;28;20460;-67
2021/10/11 07:32:12;;;;;;;464.47;435.40;;;;;;;;;;5031917;28;20445;-67
2021/10/11 07:34:39;;;;;;;447.97;421.17;;;;;;;;;;5029588;28;20460;-67
2021/10/11 07:37:06;;;;;;;430.13;405.53;;;;;;;;;;5030875;28;20448;-67
2021/10/11 07:39:35;;;;;;;408.17;387.07;;;;;;;;;;5030372;28;20539;-67
2021/10/11 07:42:02;;;;;;;409.50;390.40;;;;;;;;;;5031325;28;20469;-67
2021/10/11 07:44:30;;;;;;;366.13;348.27;;;;;;;;;;5029792;28;20464;-67
2021/10/11 07:46:58;;;;;;;344.30;329.10;;;;;;;;;;5030975;28;20457;-67
2021/10/11 07:49:25;;;;;;;346.73;330.70;;;;;;;;;;5029416;28;21161;-67
2021/10/11 07:51:53;;;;;;;347.70;332.23;;;;;;;;;;5032748;28;20451;-67
2021/10/11 07:54:20;;;;;;;319.97;305.80;;;;;;;;;;5031816;28;20567;-67
2021/10/11 07:56:48;;;;;;;243.97;232.90;;;;;;;;;;5030813;28;20488;-67
2021/10/11 07:59:16;;;;;;;192.23;183.13;;;;;;;;;;5030693;28;20519;-67
2021/10/11 08:01:43;;;;;;;151.37;143.97;;;;;;;;;;5030707;28;20444;-67
2021/10/11 08:04:10;;;;;;;152.47;145.27;;;;;;;;;;5030883;28;20944;-67
2021/10/11 08:06:37;;;;;;;135.50;128.67;;;;;;;;;;5030287;28;20458;-67
2021/10/11 08:09:05;;;;;;;113.53;107.50;;;;;;;;;;5029862;28;20498;-67
2021/10/11 08:11:32;;;;;;;66.27;61.80;;;;;;;;;;5029745;28;20967;-68
2021/10/11 08:14:00;;;;;;;57.10;53.67;;;;;;;;;;5011768;28;20438;-67
2021/10/11 08:16:27;;;;;;;57.47;53.80;;;;;;;;;;5027620;28;20468;-67
2021/10/11 08:18:55;;;;;;;82.83;78.40;;;;;;;;;;5027789;28;20488;-67
2021/10/11 08:21:22;;;;;;;64.40;60.43;;;;;;;;;;5030853;28;20472;-67
2021/10/11 08:23:53;;;;;;;51.30;48.00;;;;;;;;;;5029790;28;20460;-67
2021/10/11 08:26:20;;;;;;;46.40;43.20;;;;;;;;;;5031273;28;20494;-67
2021/10/11 08:28:47;;;;;;;40.60;37.90;;;;;;;;;;5030314;28;20488;-67
2021/10/11 08:31:15;;;;;;;37.10;34.70;;;;;;;;;;5031293;28;20476;-67
2021/10/11 08:33:42;;;;;;;35.13;32.93;;;;;;;;;;5028804;28;20465;-68
2021/10/11 08:36:12;;;;;;;34.07;31.60;;;;;;;;;;5030372;28;20460;-67
2021/10/11 08:38:40;;;;;;;32.40;30.30;;;;;;;;;;5033258;28;20491;-67
2021/10/11 08:41:07;;;;;;;30.73;28.83;;;;;;;;;;5035180;28;20823;-67
2021/10/11 08:43:35;;;;;;;29.30;27.60;;;;;;;;;;5032750;28;20475;-67
2021/10/11 08:46:03;;;;;;;29.57;27.47;;;;;;;;;;5034578;28;20498;-67
2021/10/11 08:48:31;;;;;;;31.10;28.97;;;;;;;;;;5033773;28;20510;-67
2021/10/11 08:50:58;;;;;;;38.20;35.80;;;;;;;;;;5034635;28;20468;-68
2021/10/11 08:53:25;;;;;;;55.93;52.40;;;;;;;;;;5031849;28;20475;-67
2021/10/11 08:55:53;;;;;;;89.87;84.77;;;;;;;;;;5033463;28;20469;-67
2021/10/11 08:58:20;;;;;;;141.77;135.07;;;;;;;;;;5032628;28;20492;-67
2021/10/11 09:00:47;;;;;;;201.23;191.77;;;;;;;;;;5033556;28;20991;-67
2021/10/11 09:03:17;;;;;;;253.60;242.90;;;;;;;;;;5034353;28;20456;-67
2021/10/11 09:05:47;;;;;;;115.27;109.43;;;;;;;;;;5034037;28;20453;-67
2021/10/11 10:26:04;;;;;;;25.87;24.17;;;;;;;;;;5081578;28;20934;-66
2021/10/11 10:28:42;;;;;;;25.90;24.40;;;;;;;;;;5090241;28;20438;-66
2021/10/11 10:31:10;;;;;;;27.50;25.60;;;;;;;;;;5069025;28;20481;-66
2021/10/11 10:33:38;;;;;;;27.47;25.77;;;;;;;;;;5073309;28;20479;-65
2021/10/11 10:36:06;;;;;;;28.37;26.67;;;;;;;;;;5071568;28;20455;-65
2021/10/11 10:38:33;;;;;;;27.50;25.73;;;;;;;;;;5073162;28;20439;-66
2021/10/11 10:41:00;;;;;;;28.47;26.87;;;;;;;;;;5069619;28;20494;-66
2021/10/11 10:43:39;;;;;;;29.30;27.40;;;;;;;;;;5073151;28;20474;-65
2021/10/11 10:46:09;;;;;;;31.70;29.60;;;;;;;;;;5071121;28;20466;-66
2021/10/11 10:48:37;;;;;;;40.33;37.87;;;;;;;;;;5070014;28;20977;-66
2021/10/11 10:51:04;;;;;;;43.40;40.90;;;;;;;;;;5068771;28;20476;-65
2021/10/11 10:53:31;;;;;;;46.23;43.63;;;;;;;;;;5071315;28;20528;-65
2021/10/11 10:55:59;;;;;;;41.90;39.23;;;;;;;;;;5074820;28;20926;-66
2021/10/11 10:58:26;;;;;;;35.40;33.30;;;;;;;;;;5063338;28;20980;-68
2021/10/11 11:00:56;;;;;;;202.63;194.03;;;;;;;;;;5068690;28;20552;-67
2021/10/11 11:03:24;;;;;;;264.33;250.13;;;;;;;;;;5079787;28;20505;-66
2021/10/11 11:05:53;;;;;;;336.33;318.27;;;;;;;;;;5078375;28;20454;-68
2021/10/11 11:08:26;;;;;;;376.50;354.63;;;;;;;;;;5056281;28;20440;-67
2021/10/11 11:10:53;;;;;;;344.23;330.10;;;;;;;;;;5071391;28;20794;-67
2021/10/11 11:13:24;;;;;;;222.57;213.17;;;;;;;;;;5072108;28;20481;-66
2021/10/11 11:15:53;;;;;;;201.00;192.20;;;;;;;;;;5072214;28;20465;-66
2021/10/11 11:18:22;;;;;;;99.63;94.73;;;;;;;;;;5073193;28;20829;-67
2021/10/11 11:20:50;;;;;;;160.90;154.00;;;;;;;;;;5072456;28;20565;-66
2021/10/11 11:23:19;;;;;;;239.13;229.13;;;;;;;;;;5077801;28;20465;-66
2021/10/11 11:25:47;;;;;;;309.73;296.13;;;;;;;;;;5084382;28;20901;-66
2021/10/11 11:28:17;;;;;;;323.10;307.03;;;;;;;;;;5077011;28;20443;-66
2021/10/11 11:30:45;;;;;;;375.70;359.60;;;;;;;;;;5073569;28;20454;-67
2021/10/11 11:33:14;;;;;;;142.40;135.70;;;;;;;;;;5073656;28;20517;-66
2021/10/11 11:35:45;;;;;;;130.90;124.83;;;;;;;;;;5084541;28;20454;-66
2021/10/11 11:38:13;;;;;;;187.17;178.97;;;;;;;;;;5090141;28;20447;-66
2021/10/11 11:40:40;;;;;;;215.93;206.63;;;;;;;;;;5072483;28;20483;-66
2021/10/11 11:43:08;;;;;;;85.03;80.50;;;;;;;;;;5067951;28;20482;-66
2021/10/11 11:45:37;;;;;;;76.30;72.10;;;;;;;;;;5073913;28;20938;-66
2021/10/11 11:48:05;;;;;;;88.53;84.03;;;;;;;;;;5083736;28;20830;-66
2021/10/11 11:50:32;;;;;;;99.17;94.27;;;;;;;;;;5072821;28;20431;-66
2021/10/11 11:53:01;;;;;;;116.43;110.83;;;;;;;;;;5072768;28;20473;-67
2021/10/11 11:55:29;;;;;;;54.20;51.10;;;;;;;;;;5068150;28;20451;-66
2021/10/11 11:57:57;;;;;;;32.33;30.53;;;;;;;;;;5071822;28;20486;-66
2021/10/11 12:00:24;;;;;;;28.40;26.60;;;;;;;;;;5072611;28;20484;-66
2021/10/11 12:02:52;;;;;;;27.00;25.50;;;;;;;;;;5072299;28;20589;-66
2021/10/11 12:05:19;;;;;;;26.07;24.67;;;;;;;;;;5073374;28;20454;-66
2021/10/11 12:07:47;;;;;;;26.70;24.93;;;;;;;;;;5074992;28;20454;-67
2021/10/11 12:10:17;;;;;;;25.80;24.33;;;;;;;;;;5076739;28;20443;-67
2021/10/11 12:12:44;;;;;;;23.67;22.37;;;;;;;;;;5083357;28;20469;-66
2021/10/11 12:15:19;;;;;;;24.20;22.70;;;;;;;;;;5079196;28;20455;-68
2021/10/11 12:17:46;;;;;;;24.80;23.20;;;;;;;;;;5076067;28;20930;-67
2021/10/11 12:20:13;;;;;;;24.20;22.70;;;;;;;;;;5082415;28;20465;-67
2021/10/11 12:22:40;;;;;;;25.00;23.50;;;;;;;;;;5095999;28;20472;-68
2021/10/11 12:25:09;;;;;;;24.50;23.03;;;;;;;;;;5075921;28;20451;-67
2021/10/11 12:27:38;;;;;;;24.80;23.30;;;;;;;;;;5075874;28;20453;-67
2021/10/11 12:30:11;;;;;;;25.73;24.23;;;;;;;;;;5076309;28;20958;-67
2021/10/11 12:32:38;;;;;;;32.97;31.17;;;;;;;;;;5075401;28;20475;-66
2021/10/11 12:35:08;;;;;;;66.77;63.27;;;;;;;;;;5074904;28;21162;-66
2021/10/11 12:37:39;;;;;;;130.70;125.17;;;;;;;;;;5075835;28;20451;-66
2021/10/11 12:40:08;;;;;;;155.60;148.80;;;;;;;;;;5075686;28;20478;-67
2021/10/11 12:42:45;;;;;;;142.20;136.20;;;;;;;;;;5074909;28;20471;-67
2021/10/11 12:45:14;;;;;;;97.40;92.70;;;;;;;;;;5070595;28;20965;-66
2021/10/11 12:47:42;;;;;;;35.23;33.30;;;;;;;;;;5066662;28;20447;-67
2021/10/11 12:50:10;;;;;;;30.83;29.13;;;;;;;;;;5075188;28;20442;-68
2021/10/11 12:52:39;;;;;;;27.33;25.83;;;;;;;;;;5075269;28;21012;-66
2021/10/11 12:55:11;;;;;;;28.03;26.43;;;;;;;;;;5077090;28;20469;-68
2021/10/11 12:57:38;;;;;;;27.73;26.17;;;;;;;;;;5075415;28;20447;-66
2021/10/11 13:00:08;;;;;;;27.23;25.73;;;;;;;;;;5075920;28;20484;-67
2021/10/11 13:02:35;;;;;;;24.70;23.20;;;;;;;;;;5076527;28;20463;-68
2021/10/11 13:05:02;;;;;;;25.37;23.77;;;;;;;;;;5076337;28;20454;-68
2021/10/11 13:07:32;;;;;;;27.93;26.07;;;;;;;;;;5076736;28;20439;-68
2021/10/11 13:09:59;;;;;;;24.20;22.80;;;;;;;;;;5077819;28;20938;-67
2021/10/11 13:12:27;;;;;;;27.10;25.50;;;;;;;;;;5092360;28;20447;-66
2021/10/11 13:14:54;;;;;;;27.90;26.30;;;;;;;;;;5074153;28;20470;-68
2021/10/11 13:17:22;;;;;;;23.63;22.03;;;;;;;;;;5075976;28;20459;-67
2021/10/11 13:19:50;;;;;;;24.80;23.20;;;;;;;;;;5077181;28;20799;-68
2021/10/11 13:22:17;;;;;;;24.80;23.10;;;;;;;;;;5076954;28;20461;-69
2021/10/11 13:24:44;;;;;;;24.33;22.80;;;;;;;;;;5075812;28;20470;-68
2021/10/11 13:27:11;;;;;;;23.77;22.40;;;;;;;;;;5092828;28;20450;-70
2021/10/11 13:33:09;;;;;;;29.97;28.27;;;;;;;;;;5028770;28;20428;-65
2021/10/11 14:27:57;;;;;;;37.90;35.70;;;;;;;;;;5081151;28;20814;-68
2021/10/11 14:30:29;;;;;;;31.03;29.20;;;;;;;;;;5073166;28;20446;-68
2021/10/11 14:33:18;;;;;;;34.83;32.50;;;;;;;;;;5072885;28;20524;-67
2021/10/11 15:58:38;;;;;;;242.97;230.97;;;;;;;;;;5000503;28;20460;-69
2021/10/11 16:01:14;;;;;;;262.50;249.73;;;;;;;;;;5015940;28;20465;-69
2021/10/11 16:03:51;;;;;;;275.67;262.40;;;;;;;;;;5018169;28;20472;-68
2021/10/11 16:06:19;;;;;;;268.77;255.57;;;;;;;;;;5035535;28;20507;-66
2021/10/11 16:08:46;;;;;;;295.70;281.50;;;;;;;;;;5029339;28;20445;-66
2021/10/11 16:11:14;;;;;;;301.60;287.20;;;;;;;;;;5015786;28;20449;-66
2021/10/11 16:13:41;;;;;;;295.30;281.00;;;;;;;;;;5011209;28;20478;-67
2021/10/11 16:16:10;;;;;;;285.43;271.30;;;;;;;;;;4996072;28;20454;-69
2021/10/11 16:18:38;;;;;;;290.70;276.30;;;;;;;;;;4997644;28;21012;-68
2021/10/11 16:21:06;;;;;;;288.40;274.10;;;;;;;;;;5015280;28;20878;-69
2021/10/11 16:23:34;;;;;;;292.80;278.00;;;;;;;;;;5013072;28;21007;-67
2021/10/11 16:26:02;;;;;;;285.23;271.23;;;;;;;;;;4995231;28;20498;-68
2021/10/11 16:28:31;;;;;;;295.17;280.07;;;;;;;;;;4995855;28;20737;-68
2021/10/11 16:30:58;;;;;;;287.67;273.03;;;;;;;;;;4995868;28;20453;-67
2021/10/11 16:33:27;;;;;;;266.40;252.07;;;;;;;;;;5000131;28;20481;-67
2021/10/11 16:35:54;;;;;;;272.97;259.33;;;;;;;;;;5014602;28;20453;-66
2021/10/11 16:38:21;;;;;;;265.87;252.17;;;;;;;;;;5014763;28;20454;-66
2021/10/11 16:40:49;;;;;;;258.03;244.40;;;;;;;;;;5015433;28;20491;-69
2021/10/11 16:43:16;;;;;;;254.80;241.40;;;;;;;;;;5014619;28;20571;-66
2021/10/11 16:45:43;;;;;;;253.07;239.27;;;;;;;;;;5013061;28;20461;-66
2021/10/11 16:48:10;;;;;;;245.30;231.33;;;;;;;;;;5009816;28;20468;-66
2021/10/11 16:50:39;;;;;;;241.60;227.73;;;;;;;;;;5015349;28;20452;-69
2021/10/11 16:53:06;;;;;;;248.70;234.70;;;;;;;;;;5014231;28;20461;-65
2021/10/11 16:55:33;;;;;;;248.40;234.70;;;;;;;;;;5014829;28;20456;-69
2021/10/11 16:58:00;;;;;;;241.17;227.60;;;;;;;;;;5013239;28;20577;-66
2021/10/11 17:00:27;;;;;;;232.93;219.00;;;;;;;;;;5014960;28;20465;-67
2021/10/11 17:02:54;;;;;;;241.80;227.90;;;;;;;;;;5005586;28;20462;-68
2021/10/11 17:05:22;;;;;;;234.83;221.33;;;;;;;;;;4994982;28;20453;-70
2021/10/11 17:07:52;;;;;;;251.27;237.07;;;;;;;;;;5006824;28;20816;-69
2021/10/11 17:10:20;;;;;;;239.57;225.57;;;;;;;;;;5018141;28;20457;-68
2021/10/11 17:12:47;;;;;;;240.03;226.20;;;;;;;;;;5013846;28;20462;-69
2021/10/11 17:15:14;;;;;;;232.63;218.83;;;;;;;;;;5013747;28;20477;-68
2021/10/11 17:17:41;;;;;;;242.30;228.30;;;;;;;;;;5013974;28;20457;-68
2021/10/11 17:20:09;;;;;;;242.67;228.63;;;;;;;;;;5014083;28;20826;-68
2021/10/11 17:22:36;;;;;;;238.47;224.80;;;;;;;;;;5015491;28;20910;-68
2021/10/11 17:25:05;;;;;;;231.17;217.67;;;;;;;;;;5013973;28;20799;-68
2021/10/11 17:27:33;;;;;;;238.53;224.87;;;;;;;;;;5014063;28;20457;-69
2021/10/11 17:30:00;;;;;;;234.50;220.93;;;;;;;;;;5013928;28;20975;-68
2021/10/11 17:32:27;;;;;;;218.87;204.90;;;;;;;;;;5023354;28;20449;-67
2021/10/11 17:34:54;;;;;;;231.53;217.70;;;;;;;;;;4996057;28;21099;-68
2021/10/11 17:37:21;;;;;;;226.13;211.83;;;;;;;;;;5012341;28;20468;-67
2021/10/11 17:39:48;;;;;;;233.93;220.20;;;;;;;;;;5013967;28;20461;-68